Douglas, Michigan
Current Conditions -  °F | °C
As of 4:53 AM on Friday 31 Oct 2014 (Local Time) from KBIV Reporting Station
Moderate Rain Moderate Rain  
Wind Chill: 41°   Ceiling: 2000
Heat Index: 44°   Visibility: 8mi
Dew Point: 39°   Wind: 6mph
Humidity: 82%   Direction: 330°NNW
Pressure: 29.96"   Gusts: 23mph
Location:  42.64°N, 86.2°W
Report Text: KBIV 310853Z AUTO 33005G20KT 8SM RA FEW015 BKN020 OVC030 07/04 A2996 RMK AO2 SLP147 P0005 60009 T00670039 56003
Loading
Personal Weather Stations






























Interactive Weather Map
Tropical Storm Tracking
New forecast layout! Learn more

10-Day Weather Forecast

Advertisements
Track Severe Weather on mobile